SBUG/URG METAR and TAF weather

Enter ICAO airport designator
Station Type Date Time Source
SBUG METAR 2022/10/26 19:00 UTC NOAA

SBUG 261900Z 03005KT CAVOK 21/19 Q1004


Station Type Date Time Source
SBUG Decoded METAR 2022/10/26 19:00 UTC NOAA

Uruguaiana Aeroporto , Brazil (SBUG) 29-47S 057-02W 74M
Oct 26, 2022 - 03:00 PM EDT / 2022.10.26 1900 UTC
Wind: from the NNE (030 degrees) at 6 MPH (5 KT):0
Visibility: greater than 7 mile(s):0
Temperature: 69 F (21 C)
Dew Point: 66 F (19 C)
Relative Humidity: 88%
Pressure (altimeter): 29.65 in. Hg (1004 hPa)
ob: SBUG 261900Z 03005KT CAVOK 21/19 Q1004
cycle: 19

Station Type Date Time Source
SBUG TAF 2022/11/27 06:03 UTC NOAA

TAF SBUG 270300Z 2706/2718 11015KT CAVOK TN21/2707Z TX34/2717Z
RMK PEG

Example: see airport list